createdAt,value
2017-04-27T06:56:56.048Z,95
2017-04-27T06:57:36.641Z,95
2017-04-27T06:58:17.323Z,95
2017-04-27T06:58:58.083Z,95
2017-04-27T06:59:38.741Z,95
2017-04-27T07:00:19.394Z,95
2017-04-27T07:01:00.040Z,95
2017-04-27T07:01:40.664Z,95
2017-04-27T07:02:21.237Z,95
2017-04-27T07:03:01.804Z,95
2017-04-27T07:03:42.944Z,95
2017-04-27T07:04:23.754Z,95
2017-04-27T07:05:04.436Z,95
2017-04-27T07:05:45.005Z,95
2017-04-27T07:06:25.646Z,95
2017-04-27T07:07:06.869Z,95
2017-04-27T07:07:48.036Z,95
2017-04-27T07:08:28.767Z,95
2017-04-27T07:09:09.809Z,95
2017-04-27T07:09:50.206Z,95
2017-04-27T07:10:32.017Z,95
2017-04-27T07:11:12.727Z,95
2017-04-27T07:11:53.320Z,95
2017-04-27T07:12:34.035Z,95
2017-04-27T07:13:14.769Z,95
2017-04-27T07:13:55.600Z,95
2017-04-27T07:14:36.328Z,95
2017-04-27T07:15:17.113Z,95
2017-04-27T07:15:57.810Z,95
2017-04-27T07:16:38.579Z,95
2017-04-27T07:17:20.140Z,95
2017-04-27T07:18:00.833Z,95
2017-04-27T07:18:41.399Z,95
2017-04-27T07:19:22.120Z,95
2017-04-27T07:20:02.748Z,95
2017-04-27T07:20:43.450Z,95
2017-04-27T07:21:24.025Z,95
2017-04-27T07:22:04.723Z,95
2017-04-27T07:22:45.475Z,95
2017-04-27T07:23:26.216Z,95
2017-04-27T07:24:06.973Z,95
2017-04-27T07:24:47.727Z,95
2017-04-27T07:25:28.509Z,95
2017-04-27T07:26:09.257Z,95
2017-04-27T07:26:49.996Z,95
2017-04-27T07:27:30.744Z,95
2017-04-27T07:28:11.505Z,95
2017-04-27T07:28:52.265Z,95
2017-04-27T07:29:33.016Z,95
2017-04-27T07:30:13.665Z,95
2017-04-27T07:30:54.325Z,95
2017-04-27T07:31:35.023Z,100
2017-04-27T07:32:15.598Z,100
2017-04-27T07:32:56.303Z,100
2017-04-27T07:33:38.058Z,105
2017-04-27T07:34:18.867Z,105
2017-04-27T07:34:59.593Z,110
2017-04-27T07:35:40.359Z,110
2017-04-27T07:36:21.087Z,110
2017-04-27T07:37:01.838Z,110
2017-04-27T07:37:43.618Z,110
2017-04-27T07:38:24.305Z,115
2017-04-27T07:39:05.024Z,120
2017-04-27T07:39:45.782Z,120
2017-04-27T07:40:26.534Z,125
2017-04-27T07:41:07.311Z,130
2017-04-27T07:41:48.066Z,135
2017-04-27T07:42:28.641Z,140
2017-04-27T07:43:09.330Z,145
2017-04-27T07:43:50.112Z,155
2017-04-27T07:44:31.833Z,160
2017-04-27T07:45:12.508Z,170
2017-04-27T07:45:53.165Z,175
2017-04-27T07:46:33.867Z,185
2017-04-27T07:47:14.416Z,190
2017-04-27T07:47:55.120Z,195
2017-04-27T07:48:35.998Z,200
2017-04-27T07:49:16.680Z,190
2017-04-27T07:49:57.251Z,180
2017-04-27T07:50:37.970Z,165
2017-04-27T07:51:18.696Z,145
2017-04-27T07:51:59.798Z,140
2017-04-27T07:52:40.549Z,130
2017-04-27T07:53:21.339Z,125
2017-04-27T07:54:01.962Z,115
2017-04-27T07:54:42.618Z,110
2017-04-27T07:55:23.369Z,105
2017-04-27T07:56:04.130Z,105
2017-04-27T07:56:44.708Z,105
2017-04-27T07:57:25.398Z,105
2017-04-27T07:58:06.088Z,105
2017-04-27T07:58:46.658Z,100
2017-04-27T07:59:27.368Z,100
2017-04-27T08:00:08.048Z,105
2017-04-27T08:00:48.792Z,110
2017-04-27T08:01:29.369Z,115
2017-04-27T08:02:10.054Z,125
2017-04-27T08:02:50.708Z,125
2017-04-27T08:03:31.413Z,125
2017-04-27T08:04:11.968Z,120
2017-04-27T08:04:52.683Z,120
2017-04-27T08:05:33.425Z,115
2017-04-27T08:06:14.129Z,115
2017-04-27T08:06:54.680Z,115
2017-04-27T08:07:35.389Z,115
2017-04-27T08:08:16.048Z,110
2017-04-27T08:08:56.742Z,110
2017-04-27T08:09:37.318Z,105
2017-04-27T08:10:18.032Z,105
2017-04-27T08:10:58.766Z,110
2017-04-27T08:11:39.453Z,110
2017-04-27T08:12:20.023Z,110
2017-04-27T08:13:00.706Z,110
2017-04-27T08:13:41.369Z,110
2017-04-27T08:14:22.074Z,115
2017-04-27T08:15:02.637Z,115
2017-04-27T08:15:43.318Z,115
2017-04-27T08:16:24.142Z,115
2017-04-27T08:17:04.882Z,110
2017-04-27T08:17:45.431Z,110
2017-04-27T08:18:26.139Z,110
2017-04-27T08:19:06.904Z,110
2017-04-27T08:19:47.493Z,110
2017-04-27T08:20:28.211Z,115
2017-04-27T08:21:08.971Z,115
2017-04-27T08:21:49.659Z,120
2017-04-27T08:22:30.215Z,120
2017-04-27T08:23:10.808Z,125
2017-04-27T08:23:51.462Z,125
2017-04-27T08:24:32.105Z,125
2017-04-27T08:25:12.764Z,130
2017-04-27T08:25:53.445Z,130
2017-04-27T08:26:34.069Z,135
2017-04-27T08:27:15.640Z,140
2017-04-27T08:27:56.322Z,140
2017-04-27T08:28:36.955Z,140
2017-04-27T08:29:17.599Z,145
2017-04-27T08:29:58.278Z,150
2017-04-27T08:30:38.913Z,150
2017-04-27T08:31:19.566Z,150
2017-04-27T08:32:00.260Z,150
2017-04-27T08:32:40.870Z,150
2017-04-27T08:33:21.521Z,145
2017-04-27T08:34:02.185Z,140
2017-04-27T08:34:43.895Z,140
2017-04-27T08:35:24.477Z,135
2017-04-27T08:36:05.154Z,130
2017-04-27T08:36:45.817Z,125
2017-04-27T08:37:26.415Z,125
2017-04-27T08:38:06.995Z,130
2017-04-27T08:38:47.598Z,130
2017-04-27T08:39:28.165Z,125
2017-04-27T08:40:08.771Z,120
2017-04-27T08:40:55.246Z,120
2017-04-27T08:41:35.843Z,120
2017-04-27T08:42:16.464Z,125
2017-04-27T08:42:57.110Z,130
2017-04-27T08:43:37.759Z,130
2017-04-27T08:44:18.464Z,135
2017-04-27T08:44:59.064Z,150
2017-04-27T08:45:39.715Z,150
2017-04-27T08:46:21.444Z,155
2017-04-27T08:47:02.092Z,160
2017-04-27T08:47:43.727Z,165
2017-04-27T08:48:24.475Z,175
2017-04-27T08:49:05.132Z,175
2017-04-27T08:49:45.785Z,170
2017-04-27T08:50:26.440Z,165
2017-04-27T08:51:06.995Z,165
2017-04-27T08:51:48.663Z,165
2017-04-27T08:52:29.315Z,175
2017-04-27T08:53:09.971Z,180
2017-04-27T08:53:50.658Z,190
2017-04-27T08:54:31.279Z,205
2017-04-27T08:55:11.932Z,215
2017-04-27T08:55:53.526Z,225
2017-04-27T08:56:34.161Z,230
2017-04-27T08:57:14.714Z,230
2017-04-27T08:57:55.360Z,230
2017-04-27T08:58:36.023Z,230
2017-04-27T08:59:16.684Z,225
2017-04-27T08:59:57.337Z,220
2017-04-27T09:00:37.980Z,205
2017-04-27T09:01:18.533Z,190
2017-04-27T09:01:59.180Z,195
2017-04-27T09:02:39.838Z,185
2017-04-27T09:03:20.484Z,180
2017-04-27T09:04:01.138Z,180
2017-04-27T09:04:41.791Z,175
2017-04-27T09:05:22.438Z,165
2017-04-27T09:06:03.086Z,155
2017-04-27T09:06:48.568Z,140
2017-04-27T09:07:29.227Z,130
2017-04-27T09:08:09.767Z,125
2017-04-27T09:08:50.387Z,120
2017-04-27T09:09:31.015Z,120
2017-04-27T09:10:11.622Z,115
2017-04-27T09:10:52.175Z,115
2017-04-27T09:11:32.780Z,110
2017-04-27T09:12:13.295Z,110
2017-04-27T09:12:53.860Z,120
2017-04-27T09:13:34.447Z,120
2017-04-27T09:14:15.084Z,125
2017-04-27T09:14:55.785Z,140
2017-04-27T09:15:36.327Z,140
2017-04-27T09:16:16.956Z,150
2017-04-27T09:16:57.659Z,160
2017-04-27T09:17:38.252Z,170
2017-04-27T09:18:18.906Z,175
2017-04-27T09:18:59.591Z,180
2017-04-27T09:19:41.177Z,185
2017-04-27T09:20:21.815Z,190
2017-04-27T09:21:02.372Z,190
2017-04-27T09:21:43.092Z,195
2017-04-27T09:22:23.671Z,195
2017-04-27T09:23:04.332Z,185
2017-04-27T09:23:44.955Z,185
2017-04-27T09:24:25.543Z,180
2017-04-27T09:25:06.160Z,180
2017-04-27T09:25:46.742Z,180
2017-04-27T09:26:27.394Z,180
2017-04-27T09:27:07.967Z,180
2017-04-27T09:27:48.589Z,180
2017-04-27T09:28:29.150Z,180
2017-04-27T09:29:09.723Z,185
2017-04-27T09:29:50.272Z,185
2017-04-27T09:30:30.975Z,185
2017-04-27T09:31:11.535Z,180
2017-04-27T09:31:52.167Z,180
2017-04-27T09:32:33.844Z,160
2017-04-27T09:33:14.492Z,155
2017-04-27T09:33:55.142Z,145
2017-04-27T09:34:35.739Z,135
2017-04-27T09:35:16.370Z,135
2017-04-27T09:35:56.997Z,130
2017-04-27T09:36:38.698Z,125
2017-04-27T09:37:19.323Z,120
2017-04-27T09:37:59.876Z,115
2017-04-27T09:38:40.575Z,115
2017-04-27T09:39:21.196Z,120
2017-04-27T09:40:01.778Z,125
2017-04-27T09:40:42.380Z,130
2017-04-27T09:41:23.054Z,135
2017-04-27T09:42:03.612Z,145
2017-04-27T09:42:44.249Z,155
2017-04-27T09:43:24.918Z,165
2017-04-27T09:44:05.572Z,170
2017-04-27T09:44:46.212Z,180
2017-04-27T09:45:26.879Z,165
2017-04-27T09:46:07.500Z,165
2017-04-27T09:46:48.202Z,165
2017-04-27T09:47:28.837Z,160
2017-04-27T09:48:09.586Z,160
2017-04-27T09:48:50.238Z,160
2017-04-27T09:49:30.883Z,160
2017-04-27T09:50:11.523Z,155
2017-04-27T09:50:52.222Z,155
2017-04-27T09:51:32.841Z,150
2017-04-27T09:52:13.496Z,145
2017-04-27T09:52:54.144Z,140
2017-04-27T09:53:34.811Z,140
2017-04-27T09:54:15.482Z,135
2017-04-27T09:54:56.348Z,135
2017-04-27T09:55:36.985Z,130
2017-04-27T09:56:17.625Z,130
2017-04-27T09:56:58.275Z,135
2017-04-27T09:57:39.017Z,135
2017-04-27T09:58:19.673Z,135
2017-04-27T09:59:00.337Z,135
2017-04-27T09:59:40.982Z,135
2017-04-27T10:00:21.646Z,135
2017-04-27T10:01:02.291Z,135
2017-04-27T10:01:42.964Z,135
2017-04-27T10:02:25.591Z,135
2017-04-27T10:03:06.149Z,135
2017-04-27T10:03:46.858Z,135
2017-04-27T10:04:27.487Z,130
2017-04-27T10:05:08.058Z,120
2017-04-27T10:05:54.704Z,115
2017-04-27T10:06:39.908Z,115
2017-04-27T10:07:20.679Z,115
2017-04-27T10:08:01.404Z,115
2017-04-27T10:08:42.187Z,115
2017-04-27T10:09:22.820Z,120
2017-04-27T10:10:03.583Z,125
2017-04-27T10:10:44.443Z,130
2017-04-27T10:11:25.093Z,135
2017-04-27T10:12:05.847Z,145
2017-04-27T10:12:46.597Z,150
2017-04-27T10:13:27.358Z,155
2017-04-27T10:14:08.116Z,160
2017-04-27T10:14:49.817Z,165
2017-04-27T10:15:30.548Z,170
2017-04-27T10:16:11.304Z,170
2017-04-27T10:16:51.838Z,170
2017-04-27T10:17:32.659Z,170
2017-04-27T10:18:13.439Z,170
2017-04-27T10:18:54.070Z,170
2017-04-27T10:19:34.654Z,175
2017-04-27T10:20:15.376Z,175
2017-04-27T10:20:56.147Z,170
2017-04-27T10:21:36.792Z,165
2017-04-27T10:22:17.438Z,160
2017-04-27T10:22:59.271Z,160
2017-04-27T10:23:39.978Z,160
2017-04-27T10:24:20.734Z,160
2017-04-27T10:25:01.502Z,165
2017-04-27T10:25:42.242Z,165
2017-04-27T10:26:22.906Z,170
2017-04-27T10:27:03.628Z,175
2017-04-27T10:27:44.314Z,175
2017-04-27T10:28:25.042Z,185
2017-04-27T10:29:05.675Z,185
2017-04-27T10:29:46.325Z,190
2017-04-27T10:30:26.994Z,195
2017-04-27T10:31:07.635Z,195
2017-04-27T10:31:48.285Z,195
2017-04-27T10:32:28.981Z,190
2017-04-27T10:33:09.542Z,185
2017-04-27T10:33:50.119Z,180
2017-04-27T10:34:30.806Z,175
2017-04-27T10:35:11.491Z,165
2017-04-27T10:35:52.061Z,160
2017-04-27T10:36:34.697Z,155
2017-04-27T10:37:15.351Z,150
2017-04-27T10:37:55.917Z,150
2017-04-27T10:38:37.595Z,145
2017-04-27T10:39:18.236Z,145
2017-04-27T10:39:59.913Z,145
2017-04-27T10:40:41.579Z,150
2017-04-27T10:41:23.278Z,155
2017-04-27T10:42:03.911Z,155
2017-04-27T10:42:44.564Z,160
2017-04-27T10:43:25.625Z,165
2017-04-27T10:44:06.271Z,170
2017-04-27T10:44:46.934Z,170
2017-04-27T10:45:28.605Z,175
2017-04-27T10:46:09.260Z,175
2017-04-27T10:46:51.890Z,175
2017-04-27T10:47:32.557Z,175
2017-04-27T10:48:13.137Z,170
2017-04-27T10:48:53.703Z,170
2017-04-27T10:49:35.292Z,160
2017-04-27T10:50:15.980Z,150
2017-04-27T10:50:56.586Z,140
2017-04-27T10:51:37.252Z,135
2017-04-27T10:52:17.874Z,130
2017-04-27T10:52:58.525Z,130
2017-04-27T10:53:39.202Z,140
2017-04-27T10:54:19.905Z,140
2017-04-27T10:55:00.488Z,140
2017-04-27T10:55:41.141Z,140
2017-04-27T10:56:21.785Z,140
2017-04-27T10:57:02.429Z,135
2017-04-27T10:57:43.027Z,150
2017-04-27T10:58:23.648Z,150
2017-04-27T10:59:04.296Z,155
2017-04-27T10:59:44.840Z,150
2017-04-27T11:00:25.490Z,145
2017-04-27T11:01:06.167Z,140
2017-04-27T11:01:46.743Z,135
2017-04-27T11:02:28.370Z,130
2017-04-27T11:03:10.050Z,130
2017-04-27T11:03:50.697Z,130
2017-04-27T11:04:31.357Z,130
2017-04-27T11:05:12.010Z,135
2017-04-27T11:05:52.668Z,135
2017-04-27T11:06:38.026Z,135
2017-04-27T11:07:19.648Z,140
2017-04-27T11:08:00.206Z,125
2017-04-27T11:08:40.796Z,125
2017-04-27T11:09:21.364Z,120
2017-04-27T11:10:02.106Z,120
2017-04-27T11:10:42.709Z,130
2017-04-27T11:11:23.277Z,130
2017-04-27T11:12:03.878Z,135
2017-04-27T11:12:44.525Z,140
2017-04-27T11:13:25.108Z,140
2017-04-27T11:14:05.687Z,140
2017-04-27T11:14:46.280Z,140
2017-04-27T11:15:26.918Z,140
2017-04-27T11:16:07.494Z,135
2017-04-27T11:16:48.174Z,130
2017-04-27T11:17:28.803Z,130
2017-04-27T11:18:09.442Z,130
2017-04-27T11:18:50.486Z,135
2017-04-27T11:19:31.092Z,130
2017-04-27T11:20:11.643Z,125
2017-04-27T11:20:52.248Z,125
2017-04-27T11:21:32.948Z,120
2017-04-27T11:22:13.568Z,115
2017-04-27T11:22:54.219Z,115
2017-04-27T11:23:34.871Z,110
2017-04-27T11:24:15.464Z,110
2017-04-27T11:24:56.026Z,110
2017-04-27T11:25:36.615Z,110
2017-04-27T11:26:17.207Z,110
2017-04-27T11:26:57.880Z,120
2017-04-27T11:27:38.484Z,115
2017-04-27T11:28:19.133Z,115
2017-04-27T11:28:59.796Z,115
2017-04-27T11:29:40.450Z,130
2017-04-27T11:30:21.093Z,135
2017-04-27T11:31:01.748Z,135
2017-04-27T11:31:42.502Z,140
2017-04-27T11:32:23.191Z,140
2017-04-27T11:33:03.770Z,140
2017-04-27T11:33:44.344Z,145
2017-04-27T11:34:25.017Z,150
2017-04-27T11:35:05.698Z,150
2017-04-27T11:35:46.308Z,150
2017-04-27T11:36:27.001Z,155
2017-04-27T11:37:07.628Z,155
2017-04-27T11:37:48.181Z,160
2017-04-27T11:39:10.492Z,160
2017-04-27T11:39:51.080Z,160
2017-04-27T11:40:31.705Z,165
2017-04-27T11:41:12.364Z,165
2017-04-27T11:41:52.962Z,165
2017-04-27T11:42:33.568Z,165
2017-04-27T11:43:14.221Z,165
2017-04-27T11:43:54.797Z,165
2017-04-27T11:44:35.439Z,165
2017-04-27T11:45:16.074Z,165
2017-04-27T11:45:56.685Z,165
2017-04-27T11:46:37.294Z,160
2017-04-27T11:47:17.916Z,155
2017-04-27T11:47:58.605Z,165
2017-04-27T11:48:39.226Z,160
2017-04-27T11:49:20.918Z,160
2017-04-27T11:50:01.560Z,160
2017-04-27T11:50:42.216Z,160
2017-04-27T11:51:22.871Z,155
2017-04-27T11:52:03.859Z,155
2017-04-27T11:52:44.499Z,150
2017-04-27T11:53:25.154Z,150
2017-04-27T11:54:05.807Z,150
2017-04-27T11:54:46.384Z,150
2017-04-27T11:55:26.998Z,150
2017-04-27T11:56:07.635Z,140
2017-04-27T11:56:48.524Z,155
2017-04-27T11:57:29.457Z,155
2017-04-27T11:58:10.138Z,155
2017-04-27T11:58:50.810Z,155
2017-04-27T11:59:32.496Z,155
2017-04-27T12:00:13.140Z,150
2017-04-27T12:00:53.768Z,155
2017-04-27T12:01:34.421Z,160
2017-04-27T12:02:15.060Z,165
2017-04-27T12:02:55.737Z,165
2017-04-27T12:03:36.368Z,170
2017-04-27T12:04:17.034Z,175
2017-04-27T12:04:57.669Z,180
2017-04-27T12:05:38.386Z,185
2017-04-27T12:06:19.133Z,185
2017-04-27T12:06:59.781Z,195
2017-04-27T12:07:40.564Z,205
2017-04-27T12:08:21.149Z,210
2017-04-27T12:09:01.789Z,215
2017-04-27T12:09:42.464Z,230
2017-04-27T12:10:23.147Z,235
2017-04-27T12:11:03.764Z,240
2017-04-27T12:11:44.418Z,240
2017-04-27T12:12:25.055Z,220
2017-04-27T12:13:05.644Z,225
2017-04-27T12:13:46.254Z,210
2017-04-27T12:14:26.926Z,225
2017-04-27T12:15:07.521Z,205
2017-04-27T12:15:48.148Z,205
2017-04-27T12:16:28.778Z,205
2017-04-27T12:17:09.332Z,205
2017-04-27T12:17:50.388Z,205
2017-04-27T12:18:31.048Z,205
2017-04-27T12:19:11.635Z,200
2017-04-27T12:19:52.258Z,200
2017-04-27T12:20:32.900Z,200
2017-04-27T12:21:13.467Z,195
2017-04-27T12:21:54.111Z,195
2017-04-27T12:22:34.760Z,190
2017-04-27T12:23:15.399Z,190
2017-04-27T12:23:56.083Z,190
2017-04-27T12:24:36.712Z,185
2017-04-27T12:25:17.369Z,185
2017-04-27T12:25:58.018Z,185
2017-04-27T12:26:38.660Z,185
2017-04-27T12:27:19.337Z,185
2017-04-27T12:27:59.979Z,180
2017-04-27T12:28:40.629Z,180
2017-04-27T12:29:21.283Z,180
2017-04-27T12:30:01.935Z,180
2017-04-27T12:30:42.590Z,180
2017-04-27T12:31:23.257Z,180
2017-04-27T12:32:03.924Z,180
2017-04-27T12:32:44.548Z,180
2017-04-27T12:33:25.204Z,180
2017-04-27T12:34:05.863Z,180
2017-04-27T12:34:46.532Z,180
2017-04-27T12:35:27.162Z,185
2017-04-27T12:36:07.884Z,185
2017-04-27T12:36:48.613Z,185
2017-04-27T12:37:29.383Z,185
2017-04-27T12:38:09.970Z,185
2017-04-27T12:38:50.614Z,185
